Time;durP1;ratioP1;P1;durP2;ratioP2;P2;SDS_P1;SDS_P2;PMS_P1;PMS_P2;Temp;Humidity;BMP_temperature;BMP_pressure;BME280_temperature;BME280_humidity;BME280_pressure;Samples;Min_cycle;Max_cycle;Signal;HPM_P1;HPM_P2
2020/12/06 00:01:54;;;;;;;31.27;10.45;;;;;;;;;;5095725;28;20544;-83
2020/12/06 00:04:20;;;;;;;26.33;10.30;;;;;;;;;;5095750;28;20145;-76
2020/12/06 00:06:47;;;;;;;24.00;9.55;;;;;;;;;;5095361;28;20053;-76
2020/12/06 00:09:14;;;;;;;27.40;10.18;;;;;;;;;;5095670;28;20027;-75
2020/12/06 00:11:40;;;;;;;22.30;9.68;;;;;;;;;;5113897;28;20464;-77
2020/12/06 00:14:07;;;;;;;27.13;9.82;;;;;;;;;;5095496;28;20023;-77
2020/12/06 00:16:33;;;;;;;25.55;10.02;;;;;;;;;;5095265;28;20085;-83
2020/12/06 00:18:59;;;;;;;27.75;10.18;;;;;;;;;;5095368;28;20213;-79
2020/12/06 00:21:25;;;;;;;26.40;9.20;;;;;;;;;;5095525;28;20397;-78
2020/12/06 00:23:51;;;;;;;28.33;10.57;;;;;;;;;;5095447;28;20080;-76
2020/12/06 00:26:21;;;;;;;33.70;10.85;;;;;;;;;;5094981;28;20062;-85
2020/12/06 00:28:48;;;;;;;30.63;10.32;;;;;;;;;;5094831;28;20049;-85
2020/12/06 00:31:14;;;;;;;20.58;9.07;;;;;;;;;;5094969;28;20027;-76
2020/12/06 00:33:41;;;;;;;26.50;11.07;;;;;;;;;;5095504;28;20092;-77
2020/12/06 00:36:11;;;;;;;24.42;10.00;;;;;;;;;;5113558;28;20387;-77
2020/12/06 00:38:37;;;;;;;21.92;9.45;;;;;;;;;;5095240;28;20062;-77
2020/12/06 00:41:04;;;;;;;35.67;10.52;;;;;;;;;;5113643;28;20038;-84
2020/12/06 00:43:30;;;;;;;34.03;10.90;;;;;;;;;;5113567;28;20093;-86
2020/12/06 00:45:56;;;;;;;29.17;11.07;;;;;;;;;;5113209;28;20020;-85
2020/12/06 00:48:23;;;;;;;28.58;10.80;;;;;;;;;;5095182;28;20030;-82
2020/12/06 00:50:49;;;;;;;22.45;9.98;;;;;;;;;;5113140;28;20048;-86
2020/12/06 00:53:15;;;;;;;25.70;9.48;;;;;;;;;;5095089;28;20023;-86
2020/12/06 00:55:42;;;;;;;30.45;10.50;;;;;;;;;;5095473;28;20067;-85
2020/12/06 00:58:08;;;;;;;24.58;9.88;;;;;;;;;;5113430;28;20016;-85
2020/12/06 01:00:34;;;;;;;24.75;9.85;;;;;;;;;;5095408;28;20031;-85
2020/12/06 01:03:01;;;;;;;21.45;10.43;;;;;;;;;;5095584;28;20088;-84
2020/12/06 01:05:27;;;;;;;29.73;10.13;;;;;;;;;;5113660;28;20027;-86
2020/12/06 01:07:53;;;;;;;31.02;10.27;;;;;;;;;;5098556;28;20439;-85
2020/12/06 01:10:20;;;;;;;25.80;10.27;;;;;;;;;;5099486;28;20491;-76
2020/12/06 01:12:46;;;;;;;25.15;10.48;;;;;;;;;;5099497;28;20380;-85
2020/12/06 01:15:12;;;;;;;23.45;10.45;;;;;;;;;;5099153;28;20537;-76
2020/12/06 01:17:39;;;;;;;35.90;11.75;;;;;;;;;;5117655;28;20027;-81
2020/12/06 01:20:06;;;;;;;30.85;12.00;;;;;;;;;;5117275;28;20055;-84
2020/12/06 01:22:33;;;;;;;34.88;13.18;;;;;;;;;;5098933;28;20361;-76
2020/12/06 01:24:59;;;;;;;26.38;10.82;;;;;;;;;;5099036;28;20494;-79
2020/12/06 01:27:25;;;;;;;28.27;10.68;;;;;;;;;;5117779;28;20024;-86
2020/12/06 01:29:52;;;;;;;27.25;10.05;;;;;;;;;;5116866;28;20023;-86
2020/12/06 01:32:18;;;;;;;24.30;9.68;;;;;;;;;;5117433;28;20478;-88
2020/12/06 01:34:44;;;;;;;33.63;11.38;;;;;;;;;;5098678;28;20035;-88
2020/12/06 01:37:11;;;;;;;28.42;10.60;;;;;;;;;;5116955;28;20028;-87
2020/12/06 01:39:37;;;;;;;29.17;10.63;;;;;;;;;;5117415;28;20536;-87
2020/12/06 01:42:04;;;;;;;24.33;11.32;;;;;;;;;;5116856;28;20016;-85
2020/12/06 01:44:30;;;;;;;25.92;10.30;;;;;;;;;;5117345;28;20110;-87
2020/12/06 01:46:57;;;;;;;25.63;9.68;;;;;;;;;;5098999;28;20550;-86
2020/12/06 01:49:26;;;;;;;25.48;9.68;;;;;;;;;;5116769;28;20077;-85
2020/12/06 01:51:55;;;;;;;25.25;9.30;;;;;;;;;;5094911;28;20093;-86
2020/12/06 01:54:23;;;;;;;25.33;9.77;;;;;;;;;;5094928;28;20027;-86
2020/12/06 01:56:49;;;;;;;24.73;9.48;;;;;;;;;;5094894;28;20067;-80
2020/12/06 01:59:16;;;;;;;28.35;9.57;;;;;;;;;;5096148;28;20024;-85
2020/12/06 02:01:53;;;;;;;28.42;10.43;;;;;;;;;;5096481;28;20034;-86
2020/12/06 02:04:20;;;;;;;29.45;9.85;;;;;;;;;;5095722;28;20039;-76
2020/12/06 02:06:47;;;;;;;30.65;9.30;;;;;;;;;;5095998;28;20017;-77
2020/12/06 02:09:13;;;;;;;24.13;10.05;;;;;;;;;;5096045;28;20131;-87
2020/12/06 02:11:40;;;;;;;35.53;11.13;;;;;;;;;;5094926;28;20381;-79
2020/12/06 02:14:06;;;;;;;30.38;10.93;;;;;;;;;;5095910;28;20107;-87
2020/12/06 02:16:32;;;;;;;25.58;10.13;;;;;;;;;;5094598;28;20065;-87
2020/12/06 02:18:59;;;;;;;29.38;10.85;;;;;;;;;;5101834;28;20119;-80
2020/12/06 02:21:25;;;;;;;28.38;10.75;;;;;;;;;;5101808;28;20031;-86
2020/12/06 02:23:51;;;;;;;21.35;9.15;;;;;;;;;;5095062;28;20024;-85
2020/12/06 02:26:18;;;;;;;23.45;9.57;;;;;;;;;;5094175;28;20028;-86
2020/12/06 02:28:44;;;;;;;29.75;10.65;;;;;;;;;;5094409;28;20483;-88
2020/12/06 02:31:11;;;;;;;28.10;9.65;;;;;;;;;;5095930;28;20020;-80
2020/12/06 02:33:38;;;;;;;25.92;10.13;;;;;;;;;;5095802;28;20028;-86
2020/12/06 02:36:04;;;;;;;26.13;10.30;;;;;;;;;;5095795;28;20380;-85
2020/12/06 02:38:31;;;;;;;25.80;10.25;;;;;;;;;;5095641;28;20103;-85
2020/12/06 02:40:57;;;;;;;26.50;9.43;;;;;;;;;;5094000;28;20036;-86
2020/12/06 02:43:24;;;;;;;26.65;10.57;;;;;;;;;;5095400;28;20024;-75
2020/12/06 02:45:50;;;;;;;24.90;10.40;;;;;;;;;;5095435;28;20107;-76
2020/12/06 02:48:16;;;;;;;26.63;11.00;;;;;;;;;;5094037;28;20031;-86
2020/12/06 02:50:43;;;;;;;24.20;9.82;;;;;;;;;;5093712;28;20040;-86
2020/12/06 02:53:09;;;;;;;21.27;9.85;;;;;;;;;;5093886;28;20494;-81
2020/12/06 02:55:35;;;;;;;26.55;11.43;;;;;;;;;;5093971;28;20092;-76
2020/12/06 02:58:02;;;;;;;31.95;11.38;;;;;;;;;;5095278;28;20031;-87
2020/12/06 03:00:28;;;;;;;28.92;11.07;;;;;;;;;;5093740;28;20024;-87
2020/12/06 03:02:54;;;;;;;32.08;11.55;;;;;;;;;;5093605;28;20016;-75
2020/12/06 03:05:21;;;;;;;27.10;10.90;;;;;;;;;;5095163;28;20033;-86
2020/12/06 03:07:47;;;;;;;26.52;11.30;;;;;;;;;;5093814;28;20069;-87
2020/12/06 03:10:13;;;;;;;26.13;11.10;;;;;;;;;;5094838;28;20546;-85
2020/12/06 03:12:39;;;;;;;28.73;12.13;;;;;;;;;;5096606;28;20027;-75
2020/12/06 03:15:05;;;;;;;25.55;10.40;;;;;;;;;;5103615;28;20031;-84
2020/12/06 03:17:31;;;;;;;30.33;11.82;;;;;;;;;;5103845;28;20034;-84
2020/12/06 03:19:57;;;;;;;23.08;9.57;;;;;;;;;;5104973;28;20069;-76
2020/12/06 03:22:24;;;;;;;25.67;9.98;;;;;;;;;;5113698;28;20028;-76
2020/12/06 03:24:50;;;;;;;22.05;10.18;;;;;;;;;;5115233;28;20023;-77
2020/12/06 03:27:16;;;;;;;27.42;10.73;;;;;;;;;;5114139;28;20034;-87
2020/12/06 03:29:43;;;;;;;27.52;10.10;;;;;;;;;;5113910;28;20043;-76
2020/12/06 03:32:09;;;;;;;28.83;10.07;;;;;;;;;;5114742;28;20028;-84
2020/12/06 03:34:36;;;;;;;25.88;9.65;;;;;;;;;;5113927;28;20032;-89
2020/12/06 03:37:04;;;;;;;21.83;9.23;;;;;;;;;;5115100;28;20172;-89
2020/12/06 03:39:30;;;;;;;26.90;10.27;;;;;;;;;;5113876;28;20080;-87
2020/12/06 03:41:57;;;;;;;26.13;10.35;;;;;;;;;;5113123;28;20031;-77
2020/12/06 03:44:23;;;;;;;20.05;9.30;;;;;;;;;;5114533;28;20055;-77
2020/12/06 03:46:50;;;;;;;21.63;9.73;;;;;;;;;;5113410;28;20138;-86
2020/12/06 03:49:16;;;;;;;30.67;10.70;;;;;;;;;;5114037;28;20024;-89
2020/12/06 03:51:42;;;;;;;18.90;8.98;;;;;;;;;;5113925;28;20450;-89
2020/12/06 03:54:09;;;;;;;22.38;9.45;;;;;;;;;;5112949;28;20027;-89
2020/12/06 03:56:35;;;;;;;22.90;9.75;;;;;;;;;;5113187;28;20127;-89
2020/12/06 03:59:01;;;;;;;21.77;8.52;;;;;;;;;;5115147;28;20028;-76
2020/12/06 04:01:27;;;;;;;20.77;8.82;;;;;;;;;;5113424;28;20035;-77
2020/12/06 04:03:54;;;;;;;20.67;9.48;;;;;;;;;;5114589;28;20352;-86
2020/12/06 04:06:20;;;;;;;23.83;9.73;;;;;;;;;;5113217;28;20110;-77
2020/12/06 04:08:46;;;;;;;21.25;9.23;;;;;;;;;;5114806;28;20055;-90
2020/12/06 04:11:13;;;;;;;24.63;9.90;;;;;;;;;;5115260;28;20031;-76
2020/12/06 04:13:39;;;;;;;17.80;8.40;;;;;;;;;;5114334;28;20062;-83
2020/12/06 04:16:05;;;;;;;21.70;8.75;;;;;;;;;;5113121;28;20039;-86
2020/12/06 04:18:31;;;;;;;28.45;9.65;;;;;;;;;;5113737;28;20356;-88
2020/12/06 04:20:58;;;;;;;23.80;10.40;;;;;;;;;;5109230;28;20027;-76
2020/12/06 04:23:24;;;;;;;20.67;9.48;;;;;;;;;;5113329;28;20541;-87
2020/12/06 04:25:50;;;;;;;18.73;8.60;;;;;;;;;;5112703;28;20024;-78
2020/12/06 04:28:16;;;;;;;20.92;8.63;;;;;;;;;;5112652;28;20084;-84
2020/12/06 04:30:43;;;;;;;19.95;8.55;;;;;;;;;;5113876;28;20061;-76
2020/12/06 04:33:09;;;;;;;19.45;8.75;;;;;;;;;;5114442;28;20103;-76
2020/12/06 04:35:35;;;;;;;22.73;9.82;;;;;;;;;;5113569;28;20039;-77
2020/12/06 04:38:02;;;;;;;20.88;10.20;;;;;;;;;;5113522;28;20020;-84
2020/12/06 04:40:29;;;;;;;22.15;9.57;;;;;;;;;;5113677;28;20476;-76
2020/12/06 04:42:56;;;;;;;22.10;9.70;;;;;;;;;;5113918;28;20072;-77
2020/12/06 04:45:22;;;;;;;17.77;8.63;;;;;;;;;;5113618;28;20489;-78
2020/12/06 04:47:54;;;;;;;21.42;8.88;;;;;;;;;;5113715;28;20038;-88
2020/12/06 04:50:41;;;;;;;20.85;9.45;;;;;;;;;;5112334;28;20035;-86
2020/12/06 04:53:07;;;;;;;18.38;8.75;;;;;;;;;;5112315;28;20055;-77
2020/12/06 04:55:35;;;;;;;23.42;9.50;;;;;;;;;;5114409;28;20429;-84
2020/12/06 04:58:02;;;;;;;22.40;10.45;;;;;;;;;;5113118;28;20019;-76
2020/12/06 05:00:34;;;;;;;19.58;9.38;;;;;;;;;;5113824;28;20035;-88
2020/12/06 05:03:01;;;;;;;21.63;9.23;;;;;;;;;;5112253;28;20024;-86
2020/12/06 05:05:35;;;;;;;21.75;9.32;;;;;;;;;;5112867;28;20028;-89
2020/12/06 05:08:03;;;;;;;24.15;9.02;;;;;;;;;;5112308;28;20020;-76
2020/12/06 05:10:31;;;;;;;20.55;8.63;;;;;;;;;;5113774;28;20445;-77
2020/12/06 05:12:57;;;;;;;20.08;9.23;;;;;;;;;;5111973;28;20380;-88
2020/12/06 05:15:23;;;;;;;26.35;9.98;;;;;;;;;;5113768;28;20494;-76
2020/12/06 05:17:50;;;;;;;20.83;8.70;;;;;;;;;;5113353;28;20028;-78
2020/12/06 05:20:16;;;;;;;21.48;9.23;;;;;;;;;;5113111;28;20408;-88
2020/12/06 05:22:45;;;;;;;18.90;9.60;;;;;;;;;;5113851;28;20020;-87
2020/12/06 05:25:12;;;;;;;22.13;8.43;;;;;;;;;;5112041;28;20058;-76
2020/12/06 05:27:39;;;;;;;19.77;8.45;;;;;;;;;;5113317;28;20036;-88
2020/12/06 05:30:06;;;;;;;20.92;9.23;;;;;;;;;;5111943;28;20076;-86
2020/12/06 05:32:33;;;;;;;22.52;10.05;;;;;;;;;;5113360;28;20102;-87
2020/12/06 05:35:00;;;;;;;19.23;8.98;;;;;;;;;;5112021;28;20040;-78
2020/12/06 05:37:27;;;;;;;22.42;9.23;;;;;;;;;;5116721;28;20048;-86
2020/12/06 05:40:07;;;;;;;20.80;9.55;;;;;;;;;;5123579;28;20069;-87
2020/12/06 05:42:34;;;;;;;17.15;8.18;;;;;;;;;;5116514;28;20016;-88
2020/12/06 05:45:01;;;;;;;18.90;8.52;;;;;;;;;;5112532;28;20028;-87
2020/12/06 05:47:27;;;;;;;19.23;8.90;;;;;;;;;;5113508;28;20106;-88
2020/12/06 05:49:55;;;;;;;18.20;8.43;;;;;;;;;;5114022;27;20083;-82
2020/12/06 05:52:21;;;;;;;18.48;8.68;;;;;;;;;;5115692;27;20043;-76
2020/12/06 05:54:48;;;;;;;20.38;9.43;;;;;;;;;;5119332;27;20076;-85
2020/12/06 05:57:14;;;;;;;23.23;9.38;;;;;;;;;;5119232;27;20055;-86
2020/12/06 05:59:41;;;;;;;19.30;9.18;;;;;;;;;;5119349;27;20034;-86
2020/12/06 06:02:08;;;;;;;16.73;7.72;;;;;;;;;;5119182;27;20118;-78
2020/12/06 06:04:40;;;;;;;22.42;9.90;;;;;;;;;;5137022;27;20038;-86
2020/12/06 06:07:12;;;;;;;18.13;8.53;;;;;;;;;;5137067;27;20061;-77
2020/12/06 06:09:41;;;;;;;23.50;8.90;;;;;;;;;;5118652;27;20046;-88
2020/12/06 06:12:22;;;;;;;17.20;9.40;;;;;;;;;;5136690;27;20027;-85
2020/12/06 06:14:49;;;;;;;22.02;9.05;;;;;;;;;;5118934;27;20432;-86
2020/12/06 06:17:16;;;;;;;18.23;8.30;;;;;;;;;;5118474;27;20497;-77
2020/12/06 06:19:44;;;;;;;19.75;8.25;;;;;;;;;;5136796;27;20031;-87
2020/12/06 06:22:14;;;;;;;20.27;8.85;;;;;;;;;;5136675;27;20051;-77
2020/12/06 06:24:40;;;;;;;18.65;8.82;;;;;;;;;;5136550;27;20027;-78
2020/12/06 06:27:07;;;;;;;17.17;9.15;;;;;;;;;;5118938;27;20471;-87
2020/12/06 06:29:33;;;;;;;16.17;8.70;;;;;;;;;;5118477;27;20054;-86
2020/12/06 06:32:00;;;;;;;18.85;8.73;;;;;;;;;;5118200;27;20484;-85
2020/12/06 06:34:29;;;;;;;18.58;7.85;;;;;;;;;;5118051;27;20118;-87
2020/12/06 06:36:55;;;;;;;20.85;9.40;;;;;;;;;;5117936;27;20059;-87
2020/12/06 06:39:22;;;;;;;18.65;8.18;;;;;;;;;;5136371;27;20023;-85
2020/12/06 06:42:04;;;;;;;18.33;7.95;;;;;;;;;;5118114;27;20210;-88
2020/12/06 06:44:31;;;;;;;25.77;8.85;;;;;;;;;;5118384;27;20483;-87
2020/12/06 06:47:02;;;;;;;17.65;8.05;;;;;;;;;;5136477;27;20098;-88
2020/12/06 06:49:29;;;;;;;19.10;9.32;;;;;;;;;;5137052;27;20472;-88
2020/12/06 06:51:55;;;;;;;20.15;9.18;;;;;;;;;;5135983;27;20051;-87
2020/12/06 06:54:30;;;;;;;22.80;9.85;;;;;;;;;;5118098;27;20051;-75
2020/12/06 06:56:58;;;;;;;26.08;10.10;;;;;;;;;;5118226;27;20031;-88
2020/12/06 06:59:33;;;;;;;20.02;9.02;;;;;;;;;;5118936;27;20055;-87
2020/12/06 07:01:59;;;;;;;21.40;8.77;;;;;;;;;;5117495;27;20053;-87
2020/12/06 07:04:26;;;;;;;20.60;8.75;;;;;;;;;;5117607;27;20031;-88
2020/12/06 07:06:53;;;;;;;18.55;9.30;;;;;;;;;;5135870;27;20022;-86
2020/12/06 07:09:23;;;;;;;19.83;9.50;;;;;;;;;;5137229;27;20478;-78
2020/12/06 07:11:50;;;;;;;16.83;7.82;;;;;;;;;;5117238;27;20495;-76
2020/12/06 07:14:16;;;;;;;24.17;9.30;;;;;;;;;;5135607;27;20016;-87
2020/12/06 07:16:43;;;;;;;19.60;9.65;;;;;;;;;;5135774;27;20061;-76
2020/12/06 07:19:09;;;;;;;21.20;9.63;;;;;;;;;;5135782;27;20039;-80
2020/12/06 07:21:36;;;;;;;21.15;8.85;;;;;;;;;;5136726;27;20487;-82
2020/12/06 07:24:05;;;;;;;18.75;9.30;;;;;;;;;;5117407;27;20387;-87
2020/12/06 07:26:32;;;;;;;24.40;9.07;;;;;;;;;;5117614;27;20167;-76
2020/12/06 07:28:59;;;;;;;23.92;10.50;;;;;;;;;;5136149;27;20469;-77
2020/12/06 07:31:26;;;;;;;16.35;8.95;;;;;;;;;;5116773;27;20391;-76
2020/12/06 07:33:53;;;;;;;23.10;8.65;;;;;;;;;;5135737;27;20023;-76
2020/12/06 07:36:19;;;;;;;20.42;7.53;;;;;;;;;;5135598;27;20425;-76
2020/12/06 07:38:46;;;;;;;22.17;9.98;;;;;;;;;;5134947;27;20030;-76
2020/12/06 07:41:12;;;;;;;17.20;6.57;;;;;;;;;;5136185;27;20023;-77
2020/12/06 07:43:39;;;;;;;20.90;9.52;;;;;;;;;;5135379;27;20045;-88
2020/12/06 07:46:12;;;;;;;17.02;8.82;;;;;;;;;;5135037;27;20019;-77
2020/12/06 07:48:38;;;;;;;16.98;8.55;;;;;;;;;;5117318;27;20030;-86
2020/12/06 07:51:04;;;;;;;18.13;7.50;;;;;;;;;;5116408;27;20066;-83
2020/12/06 07:53:42;;;;;;;27.23;9.02;;;;;;;;;;5116473;27;20031;-78
2020/12/06 07:56:09;;;;;;;17.73;8.40;;;;;;;;;;5116597;27;20035;-77
2020/12/06 07:58:38;;;;;;;16.55;7.97;;;;;;;;;;5134978;27;20420;-80
2020/12/06 08:01:04;;;;;;;19.05;8.20;;;;;;;;;;5116359;27;20027;-77
2020/12/06 08:03:31;;;;;;;15.68;7.38;;;;;;;;;;5134581;27;20102;-77
2020/12/06 08:05:59;;;;;;;20.08;8.25;;;;;;;;;;5110194;27;20046;-77
2020/12/06 08:08:27;;;;;;;17.30;7.70;;;;;;;;;;5114779;27;20043;-86
2020/12/06 08:10:55;;;;;;;10.95;5.20;;;;;;;;;;5095695;28;20414;-85
2020/12/06 08:13:21;;;;;;;19.60;8.70;;;;;;;;;;5095651;28;20024;-77
2020/12/06 08:15:47;;;;;;;16.67;7.25;;;;;;;;;;5095912;28;20383;-83
2020/12/06 08:18:14;;;;;;;16.92;8.02;;;;;;;;;;5097829;28;20026;-84
2020/12/06 08:20:40;;;;;;;19.30;8.50;;;;;;;;;;5114629;28;20407;-83
2020/12/06 08:23:06;;;;;;;20.45;8.73;;;;;;;;;;5098221;28;20109;-76
2020/12/06 08:25:46;;;;;;;25.33;8.00;;;;;;;;;;5095850;28;20127;-79
2020/12/06 08:28:19;;;;;;;19.48;8.00;;;;;;;;;;5097991;28;20032;-76
2020/12/06 08:30:45;;;;;;;15.23;7.30;;;;;;;;;;5105956;27;20020;-84
2020/12/06 08:33:11;;;;;;;18.90;8.32;;;;;;;;;;5116015;27;20084;-77
2020/12/06 08:35:46;;;;;;;18.60;8.80;;;;;;;;;;5116039;27;20049;-76
2020/12/06 08:38:22;;;;;;;15.70;6.88;;;;;;;;;;5103444;28;20475;-76
2020/12/06 08:41:07;;;;;;;16.63;8.13;;;;;;;;;;5104093;28;20110;-86
2020/12/06 08:43:49;;;;;;;18.05;8.05;;;;;;;;;;5108542;27;20038;-87
2020/12/06 08:46:25;;;;;;;17.50;7.95;;;;;;;;;;5107509;28;20472;-76
2020/12/06 08:48:55;;;;;;;20.33;8.13;;;;;;;;;;5124791;28;20034;-78
2020/12/06 08:51:31;;;;;;;17.73;7.70;;;;;;;;;;5094769;28;20090;-77
2020/12/06 08:53:58;;;;;;;20.17;8.10;;;;;;;;;;5113559;28;20103;-77
2020/12/06 08:56:30;;;;;;;17.25;7.97;;;;;;;;;;5094958;28;20442;-78
2020/12/06 08:59:01;;;;;;;13.38;7.15;;;;;;;;;;5113546;28;20051;-78
2020/12/06 09:01:27;;;;;;;17.95;7.85;;;;;;;;;;5095295;28;20076;-78
2020/12/06 09:03:53;;;;;;;16.48;6.95;;;;;;;;;;5113403;28;20020;-89
2020/12/06 09:06:20;;;;;;;16.83;7.00;;;;;;;;;;5095429;28;20106;-80
2020/12/06 09:08:46;;;;;;;14.95;7.18;;;;;;;;;;5113434;28;20024;-90
2020/12/06 09:11:16;;;;;;;11.98;5.88;;;;;;;;;;5113494;28;20082;-82
2020/12/06 09:13:42;;;;;;;15.38;6.45;;;;;;;;;;5096580;28;20068;-88
2020/12/06 09:16:09;;;;;;;15.98;6.22;;;;;;;;;;5113974;28;20040;-80
2020/12/06 09:18:35;;;;;;;17.98;8.10;;;;;;;;;;5095987;28;20023;-79
2020/12/06 09:21:01;;;;;;;17.83;7.57;;;;;;;;;;5096223;28;20024;-89
2020/12/06 09:23:28;;;;;;;18.42;7.70;;;;;;;;;;5113531;28;20095;-90
2020/12/06 09:25:54;;;;;;;18.38;8.02;;;;;;;;;;5113740;28;20028;-79
2020/12/06 09:28:20;;;;;;;10.77;5.25;;;;;;;;;;5098575;28;20384;-79
2020/12/06 09:30:46;;;;;;;16.67;7.32;;;;;;;;;;5099961;28;20054;-88
2020/12/06 09:33:13;;;;;;;12.88;6.15;;;;;;;;;;5100980;28;20020;-84
2020/12/06 09:35:39;;;;;;;13.30;6.57;;;;;;;;;;5100475;28;20127;-78
2020/12/06 09:38:05;;;;;;;13.27;6.20;;;;;;;;;;5100301;28;20061;-90
2020/12/06 09:40:31;;;;;;;11.02;5.25;;;;;;;;;;5117093;28;20031;-84
2020/12/06 09:42:59;;;;;;;15.48;7.53;;;;;;;;;;5098921;28;20030;-90
2020/12/06 09:45:25;;;;;;;14.45;6.25;;;;;;;;;;5099107;28;20116;-78
2020/12/06 09:47:51;;;;;;;11.52;5.55;;;;;;;;;;5104449;28;20027;-90
2020/12/06 09:50:17;;;;;;;13.23;6.68;;;;;;;;;;5095205;28;20048;-89
2020/12/06 09:52:44;;;;;;;12.45;6.75;;;;;;;;;;5096596;28;20035;-88
2020/12/06 09:55:10;;;;;;;15.90;7.60;;;;;;;;;;5096207;28;20044;-78
2020/12/06 09:57:36;;;;;;;13.45;6.07;;;;;;;;;;5095414;28;20020;-90
2020/12/06 10:00:03;;;;;;;12.85;6.25;;;;;;;;;;5095543;28;20484;-89
2020/12/06 10:02:29;;;;;;;15.13;7.03;;;;;;;;;;5096217;28;20071;-86
2020/12/06 10:04:56;;;;;;;14.43;6.65;;;;;;;;;;5095371;28;20027;-90
2020/12/06 10:07:24;;;;;;;12.45;6.20;;;;;;;;;;5096538;28;20061;-90
2020/12/06 10:09:50;;;;;;;16.23;6.85;;;;;;;;;;5094995;28;20443;-79
2020/12/06 10:12:16;;;;;;;11.30;5.75;;;;;;;;;;5094896;28;20024;-89
2020/12/06 10:14:42;;;;;;;14.82;6.20;;;;;;;;;;5096230;28;20042;-79
2020/12/06 10:17:09;;;;;;;10.32;5.03;;;;;;;;;;5096527;28;20032;-90
2020/12/06 10:19:35;;;;;;;12.63;6.25;;;;;;;;;;5096318;28;20016;-91
2020/12/06 10:22:02;;;;;;;15.45;7.13;;;;;;;;;;5097357;28;20028;-77
2020/12/06 10:24:28;;;;;;;15.80;6.60;;;;;;;;;;5095829;28;20447;-80
2020/12/06 10:26:55;;;;;;;13.20;6.47;;;;;;;;;;5095091;28;20024;-90
2020/12/06 10:29:22;;;;;;;14.40;6.70;;;;;;;;;;5094844;28;20091;-78
2020/12/06 10:31:55;;;;;;;16.33;7.63;;;;;;;;;;5095577;28;20095;-77
2020/12/06 10:34:21;;;;;;;11.55;4.68;;;;;;;;;;5094209;28;20024;-77
2020/12/06 10:36:51;;;;;;;13.82;6.65;;;;;;;;;;5094492;28;20032;-84
2020/12/06 10:39:17;;;;;;;12.18;6.13;;;;;;;;;;5093749;28;20024;-85
2020/12/06 10:41:43;;;;;;;11.32;5.13;;;;;;;;;;5094128;28;20028;-78
2020/12/06 10:44:09;;;;;;;12.52;5.75;;;;;;;;;;5095097;28;20031;-76
2020/12/06 10:46:36;;;;;;;16.40;5.70;;;;;;;;;;5094072;28;20477;-77
2020/12/06 10:49:02;;;;;;;10.23;3.95;;;;;;;;;;5095501;28;20024;-86
2020/12/06 10:51:28;;;;;;;14.27;6.75;;;;;;;;;;5109087;28;20127;-85
2020/12/06 10:53:54;;;;;;;10.95;5.35;;;;;;;;;;5097361;28;20023;-89
2020/12/06 10:56:26;;;;;;;11.52;6.28;;;;;;;;;;5098803;28;20039;-93
2020/12/06 10:58:52;;;;;;;15.02;6.28;;;;;;;;;;5098078;28;20047;-84
2020/12/06 11:01:19;;;;;;;10.32;4.88;;;;;;;;;;5116263;28;20106;-86
2020/12/06 11:03:45;;;;;;;12.05;6.05;;;;;;;;;;5104172;28;20051;-92
